Flight Track Log - Related Links

Times and Time Zones

All times are in EDT time to prevent confusion due to time zone crossing. See the N5293J flight status page for this flight to view local times or setup timezone preferences in your user account.

Time Position Orientation Groundspeed Altitude Reporting Facility
EDT Latitude Longitude Course Direction KTS MPH feet Rate Location/Type
Tue 05:06:31 AM 43.1558 -86.2614 114° Southeast 135 155 1,300  Level Chicago Center
Tue 05:07:32 AM 43.1258 -86.2678 189° South 116 133 2,700 942 Climbing Chicago Center
Tue 05:08:32 AM 43.1050 -86.2197 121° Southeast 134 154 3,200 248 Climbing Chicago Center
Tue 05:09:33 AM 43.0844 -86.1564 114° Southeast 160 184 3,200  Level Chicago Center
Tue 05:10:33 AM 43.0642 -86.0872 112° Southeast 180 207 3,200  Level Chicago Center
Tue 05:11:00 AM 43.0375 -85.9124 114° Southeast  Level FlightAware Approximate
Tue 05:11:34 AM 43.0436 -86.0192 112° Southeast 191 220 3,200  Level Chicago Center
Tue 05:12:34 AM 43.0269 -85.9578 110° East 191 220 3,200 -50 Level Chicago Center
Tue 05:13:35 AM 43.0083 -85.8908 111° Southeast 191 220 3,100 -50 Descending Chicago Center
Tue 05:14:35 AM 42.9858 -85.8106 111° Southeast 191 220 3,100  Level Chicago Center
Tue 05:15:36 AM 42.9658 -85.7453 113° Southeast 191 220 3,100  Level Chicago Center
Tue 05:16:36 AM 42.9444 -85.6783 114° Southeast 191 220 3,100  Level Chicago Center
Tue 05:17:37 AM 42.9236 -85.6119 113° Southeast 191 220 3,100  Level Chicago Center
Tue 05:18:37 AM 42.9044 -85.5431 111° Southeast 191 220 3,100  Level Chicago Center
Tue 05:19:38 AM 42.8864 -85.4761 110° East 191 220 3,100  Level Chicago Center
Tue 05:20:38 AM 42.8539 -85.4189 128° Southeast 191 220 3,100  Level Chicago Center
Tue 05:21:39 AM 42.8172 -85.3706 136° Southeast 193 222 3,100  Level Chicago Center
Tue 05:22:39 AM 42.8528 -85.3422 30° Northeast 180 207 3,100 -50 Level Chicago Center
Tue 05:23:40 AM 42.8864 -85.3644 334° Northwest 157 181 3,000 -347 Descending Chicago Center
Tue 05:24:40 AM 42.8919 -85.4133 279° West 141 162 2,400 -744 Descending Chicago Center
Tue 05:25:41 AM 42.8856 -85.4656 261° West 138 159 1,500 -639 Descending Chicago Center
Tue 05:26:42 AM 42.8803 -85.5242 263° West 138 159 1,100 -393 Descending Chicago Center

Login

Don't have an account? Register now (free) for customized features, flight alerts, and more!